sensor_id;sensor_type;location;lat;lon;timestamp;temperature;humidity
69589;SHT31;56792;50.644;17.984;2023-04-24T00:00:01;13.95;70.78
69589;SHT31;56792;50.644;17.984;2023-04-24T00:02:31;13.97;70.94
69589;SHT31;56792;50.644;17.984;2023-04-24T00:04:59;13.97;70.85
69589;SHT31;56792;50.644;17.984;2023-04-24T00:07:28;13.97;70.86
69589;SHT31;56792;50.644;17.984;2023-04-24T00:09:56;13.97;70.85
69589;SHT31;56792;50.644;17.984;2023-04-24T00:12:25;13.97;70.84
69589;SHT31;56792;50.644;17.984;2023-04-24T00:14:53;13.97;70.79
69589;SHT31;56792;50.644;17.984;2023-04-24T00:17:22;13.98;70.81
69589;SHT31;56792;50.644;17.984;2023-04-24T00:19:50;13.98;70.74
69589;SHT31;56792;50.644;17.984;2023-04-24T00:22:24;13.98;70.92
69589;SHT31;56792;50.644;17.984;2023-04-24T00:24:52;13.96;70.80
69589;SHT31;56792;50.644;17.984;2023-04-24T00:27:21;13.96;70.71
69589;SHT31;56792;50.644;17.984;2023-04-24T00:29:50;13.97;70.93
69589;SHT31;56792;50.644;17.984;2023-04-24T00:32:18;13.98;70.91
69589;SHT31;56792;50.644;17.984;2023-04-24T00:34:48;13.99;70.70
69589;SHT31;56792;50.644;17.984;2023-04-24T00:37:16;14.00;70.68
69589;SHT31;56792;50.644;17.984;2023-04-24T00:39:44;14.00;70.44
69589;SHT31;56792;50.644;17.984;2023-04-24T00:42:13;14.01;70.50
69589;SHT31;56792;50.644;17.984;2023-04-24T00:44:41;14.01;70.60
69589;SHT31;56792;50.644;17.984;2023-04-24T00:47:10;14.01;70.50
69589;SHT31;56792;50.644;17.984;2023-04-24T00:49:39;14.02;70.28
69589;SHT31;56792;50.644;17.984;2023-04-24T00:52:07;14.03;70.24
69589;SHT31;56792;50.644;17.984;2023-04-24T00:54:35;14.04;70.10
69589;SHT31;56792;50.644;17.984;2023-04-24T00:57:03;14.05;70.21
69589;SHT31;56792;50.644;17.984;2023-04-24T00:59:32;14.05;70.41
69589;SHT31;56792;50.644;17.984;2023-04-24T01:02:02;14.05;70.44
69589;SHT31;56792;50.644;17.984;2023-04-24T01:04:31;14.04;70.54
69589;SHT31;56792;50.644;17.984;2023-04-24T01:06:59;14.05;70.62
69589;SHT31;56792;50.644;17.984;2023-04-24T01:09:28;14.04;70.57
69589;SHT31;56792;50.644;17.984;2023-04-24T01:11:57;14.06;70.44
69589;SHT31;56792;50.644;17.984;2023-04-24T01:14:26;14.06;70.66
69589;SHT31;56792;50.644;17.984;2023-04-24T01:16:56;14.07;70.67
69589;SHT31;56792;50.644;17.984;2023-04-24T01:19:24;14.06;70.87
69589;SHT31;56792;50.644;17.984;2023-04-24T01:21:53;14.04;70.86
69589;SHT31;56792;50.644;17.984;2023-04-24T01:24:28;14.03;70.93
69589;SHT31;56792;50.644;17.984;2023-04-24T01:26:57;14.01;70.89
69589;SHT31;56792;50.644;17.984;2023-04-24T01:29:27;14.00;71.12
69589;SHT31;56792;50.644;17.984;2023-04-24T01:31:55;13.98;70.65
69589;SHT31;56792;50.644;17.984;2023-04-24T01:34:24;13.98;70.07
69589;SHT31;56792;50.644;17.984;2023-04-24T01:36:53;13.99;70.23
69589;SHT31;56792;50.644;17.984;2023-04-24T01:39:22;13.99;69.81
69589;SHT31;56792;50.644;17.984;2023-04-24T01:41:53;13.99;69.49
69589;SHT31;56792;50.644;17.984;2023-04-24T01:44:22;14.00;69.13
69589;SHT31;56792;50.644;17.984;2023-04-24T01:46:50;14.02;68.31
69589;SHT31;56792;50.644;17.984;2023-04-24T01:49:20;14.03;67.43
69589;SHT31;56792;50.644;17.984;2023-04-24T01:51:49;14.05;66.62
69589;SHT31;56792;50.644;17.984;2023-04-24T01:54:17;14.08;65.76
69589;SHT31;56792;50.644;17.984;2023-04-24T01:56:46;14.11;65.44
69589;SHT31;56792;50.644;17.984;2023-04-24T01:59:14;14.13;64.91
69589;SHT31;56792;50.644;17.984;2023-04-24T02:01:44;14.16;64.58
69589;SHT31;56792;50.644;17.984;2023-04-24T02:04:12;14.18;63.77
69589;SHT31;56792;50.644;17.984;2023-04-24T02:06:41;14.21;63.74
69589;SHT31;56792;50.644;17.984;2023-04-24T02:09:09;14.23;63.23
69589;SHT31;56792;50.644;17.984;2023-04-24T02:11:37;14.26;62.99
69589;SHT31;56792;50.644;17.984;2023-04-24T02:14:05;14.27;62.69
69589;SHT31;56792;50.644;17.984;2023-04-24T02:16:33;14.30;63.23
69589;SHT31;56792;50.644;17.984;2023-04-24T02:19:02;14.31;63.32
69589;SHT31;56792;50.644;17.984;2023-04-24T02:21:30;14.32;63.36
69589;SHT31;56792;50.644;17.984;2023-04-24T02:23:59;14.33;63.84
69589;SHT31;56792;50.644;17.984;2023-04-24T02:26:27;14.33;63.84
69589;SHT31;56792;50.644;17.984;2023-04-24T02:28:57;14.33;63.70
69589;SHT31;56792;50.644;17.984;2023-04-24T02:31:25;14.35;62.66
69589;SHT31;56792;50.644;17.984;2023-04-24T02:33:54;14.37;62.34
69589;SHT31;56792;50.644;17.984;2023-04-24T02:36:22;14.38;62.03
69589;SHT31;56792;50.644;17.984;2023-04-24T02:38:50;14.39;62.35
69589;SHT31;56792;50.644;17.984;2023-04-24T02:41:19;14.40;61.46
69589;SHT31;56792;50.644;17.984;2023-04-24T02:43:47;14.42;61.02
69589;SHT31;56792;50.644;17.984;2023-04-24T02:46:15;14.44;60.39
69589;SHT31;56792;50.644;17.984;2023-04-24T02:48:44;14.44;60.45
69589;SHT31;56792;50.644;17.984;2023-04-24T02:51:12;14.45;60.36
69589;SHT31;56792;50.644;17.984;2023-04-24T02:53:40;14.46;59.73
69589;SHT31;56792;50.644;17.984;2023-04-24T02:56:08;14.47;59.39
69589;SHT31;56792;50.644;17.984;2023-04-24T02:58:38;14.49;58.97
69589;SHT31;56792;50.644;17.984;2023-04-24T03:01:06;14.50;59.10
69589;SHT31;56792;50.644;17.984;2023-04-24T03:03:35;14.49;58.68
69589;SHT31;56792;50.644;17.984;2023-04-24T03:06:04;14.50;58.37
69589;SHT31;56792;50.644;17.984;2023-04-24T03:08:33;14.52;58.16
69589;SHT31;56792;50.644;17.984;2023-04-24T03:11:02;14.54;58.31
69589;SHT31;56792;50.644;17.984;2023-04-24T03:13:31;14.53;58.31
69589;SHT31;56792;50.644;17.984;2023-04-24T03:15:59;14.53;58.10
69589;SHT31;56792;50.644;17.984;2023-04-24T03:18:27;14.53;58.45
69589;SHT31;56792;50.644;17.984;2023-04-24T03:20:55;14.53;58.49
69589;SHT31;56792;50.644;17.984;2023-04-24T03:23:24;14.52;59.31
69589;SHT31;56792;50.644;17.984;2023-04-24T03:25:52;14.51;58.72
69589;SHT31;56792;50.644;17.984;2023-04-24T03:28:21;14.51;58.98
69589;SHT31;56792;50.644;17.984;2023-04-24T03:31:03;14.50;59.03
69589;SHT31;56792;50.644;17.984;2023-04-24T03:33:34;14.48;59.35
69589;SHT31;56792;50.644;17.984;2023-04-24T03:36:02;14.45;59.53
69589;SHT31;56792;50.644;17.984;2023-04-24T03:38:39;14.43;59.31
69589;SHT31;56792;50.644;17.984;2023-04-24T03:41:23;14.43;59.11
69589;SHT31;56792;50.644;17.984;2023-04-24T03:44:09;14.41;59.34
69589;SHT31;56792;50.644;17.984;2023-04-24T03:46:38;14.41;59.54
69589;SHT31;56792;50.644;17.984;2023-04-24T03:49:06;14.39;59.76
69589;SHT31;56792;50.644;17.984;2023-04-24T03:51:36;14.37;59.60
69589;SHT31;56792;50.644;17.984;2023-04-24T03:54:20;14.38;59.19
69589;SHT31;56792;50.644;17.984;2023-04-24T03:56:49;14.37;59.16
69589;SHT31;56792;50.644;17.984;2023-04-24T03:59:17;14.37;59.40
69589;SHT31;56792;50.644;17.984;2023-04-24T04:01:50;14.36;59.23
69589;SHT31;56792;50.644;17.984;2023-04-24T04:04:18;14.36;58.85
69589;SHT31;56792;50.644;17.984;2023-04-24T04:06:46;14.35;59.19
69589;SHT31;56792;50.644;17.984;2023-04-24T04:09:15;14.34;59.51
69589;SHT31;56792;50.644;17.984;2023-04-24T04:11:43;14.33;60.21
69589;SHT31;56792;50.644;17.984;2023-04-24T04:14:11;14.32;60.79
69589;SHT31;56792;50.644;17.984;2023-04-24T04:16:41;14.29;61.43
69589;SHT31;56792;50.644;17.984;2023-04-24T04:19:10;14.27;62.05
69589;SHT31;56792;50.644;17.984;2023-04-24T04:21:39;14.25;62.23
69589;SHT31;56792;50.644;17.984;2023-04-24T04:24:16;14.25;62.44
69589;SHT31;56792;50.644;17.984;2023-04-24T04:26:46;14.23;62.52
69589;SHT31;56792;50.644;17.984;2023-04-24T04:29:22;14.21;63.32
69589;SHT31;56792;50.644;17.984;2023-04-24T04:31:51;14.19;63.40
69589;SHT31;56792;50.644;17.984;2023-04-24T04:34:21;14.17;63.57
69589;SHT31;56792;50.644;17.984;2023-04-24T04:36:49;14.18;63.06
69589;SHT31;56792;50.644;17.984;2023-04-24T04:39:38;14.16;62.43
69589;SHT31;56792;50.644;17.984;2023-04-24T04:42:11;14.17;62.41
69589;SHT31;56792;50.644;17.984;2023-04-24T04:44:41;14.19;62.32
69589;SHT31;56792;50.644;17.984;2023-04-24T04:47:15;14.21;62.31
69589;SHT31;56792;50.644;17.984;2023-04-24T04:49:44;14.22;61.70
69589;SHT31;56792;50.644;17.984;2023-04-24T04:52:18;14.24;61.18
69589;SHT31;56792;50.644;17.984;2023-04-24T04:54:51;14.26;61.06
69589;SHT31;56792;50.644;17.984;2023-04-24T04:57:19;14.27;60.38
69589;SHT31;56792;50.644;17.984;2023-04-24T04:59:48;14.30;60.00
69589;SHT31;56792;50.644;17.984;2023-04-24T05:02:23;14.32;59.45
69589;SHT31;56792;50.644;17.984;2023-04-24T05:04:51;14.34;59.35
69589;SHT31;56792;50.644;17.984;2023-04-24T05:07:20;14.35;59.65
69589;SHT31;56792;50.644;17.984;2023-04-24T05:09:50;14.35;60.01
69589;SHT31;56792;50.644;17.984;2023-04-24T05:12:18;14.35;60.12
69589;SHT31;56792;50.644;17.984;2023-04-24T05:14:50;14.35;59.79
69589;SHT31;56792;50.644;17.984;2023-04-24T05:17:18;14.35;59.13
69589;SHT31;56792;50.644;17.984;2023-04-24T05:19:46;14.37;58.65
69589;SHT31;56792;50.644;17.984;2023-04-24T05:22:15;14.39;58.29
69589;SHT31;56792;50.644;17.984;2023-04-24T05:24:48;14.40;58.28
69589;SHT31;56792;50.644;17.984;2023-04-24T05:27:35;14.43;58.23
69589;SHT31;56792;50.644;17.984;2023-04-24T05:30:08;14.45;57.89
69589;SHT31;56792;50.644;17.984;2023-04-24T05:32:38;14.48;57.93
69589;SHT31;56792;50.644;17.984;2023-04-24T05:35:07;14.49;57.87
69589;SHT31;56792;50.644;17.984;2023-04-24T05:37:36;14.50;57.98
69589;SHT31;56792;50.644;17.984;2023-04-24T05:40:05;14.51;58.17
69589;SHT31;56792;50.644;17.984;2023-04-24T05:42:36;14.51;58.44
69589;SHT31;56792;50.644;17.984;2023-04-24T05:45:06;14.50;58.33
69589;SHT31;56792;50.644;17.984;2023-04-24T05:47:41;14.48;58.18
69589;SHT31;56792;50.644;17.984;2023-04-24T05:50:10;14.48;58.28
69589;SHT31;56792;50.644;17.984;2023-04-24T05:52:40;14.46;58.20
69589;SHT31;56792;50.644;17.984;2023-04-24T05:55:20;14.46;58.11
69589;SHT31;56792;50.644;17.984;2023-04-24T05:57:48;14.48;58.12
69589;SHT31;56792;50.644;17.984;2023-04-24T06:00:17;14.49;57.97
69589;SHT31;56792;50.644;17.984;2023-04-24T06:02:49;14.50;57.80
69589;SHT31;56792;50.644;17.984;2023-04-24T06:05:20;14.50;57.72
69589;SHT31;56792;50.644;17.984;2023-04-24T06:07:48;14.53;57.90
69589;SHT31;56792;50.644;17.984;2023-04-24T06:10:17;14.57;57.79
69589;SHT31;56792;50.644;17.984;2023-04-24T06:12:45;14.62;57.68
69589;SHT31;56792;50.644;17.984;2023-04-24T06:15:16;14.65;57.24
69589;SHT31;56792;50.644;17.984;2023-04-24T06:17:51;14.70;57.30
69589;SHT31;56792;50.644;17.984;2023-04-24T06:20:20;14.76;57.24
69589;SHT31;56792;50.644;17.984;2023-04-24T06:22:48;14.83;57.28
69589;SHT31;56792;50.644;17.984;2023-04-24T06:25:17;14.91;56.93
69589;SHT31;56792;50.644;17.984;2023-04-24T06:27:45;15.00;56.94
69589;SHT31;56792;50.644;17.984;2023-04-24T06:30:13;15.08;57.14
69589;SHT31;56792;50.644;17.984;2023-04-24T06:32:42;15.16;57.48
69589;SHT31;56792;50.644;17.984;2023-04-24T06:35:10;15.29;57.30
69589;SHT31;56792;50.644;17.984;2023-04-24T06:37:39;15.40;57.19
69589;SHT31;56792;50.644;17.984;2023-04-24T06:40:09;15.52;56.14
69589;SHT31;56792;50.644;17.984;2023-04-24T06:42:38;15.63;55.73
69589;SHT31;56792;50.644;17.984;2023-04-24T06:45:08;15.75;55.24
69589;SHT31;56792;50.644;17.984;2023-04-24T06:47:37;15.88;55.24
69589;SHT31;56792;50.644;17.984;2023-04-24T06:50:06;16.00;55.10
69589;SHT31;56792;50.644;17.984;2023-04-24T06:52:37;16.14;55.26
69589;SHT31;56792;50.644;17.984;2023-04-24T06:55:06;16.26;54.66
69589;SHT31;56792;50.644;17.984;2023-04-24T06:57:37;16.32;54.55
69589;SHT31;56792;50.644;17.984;2023-04-24T07:00:06;16.41;54.61
69589;SHT31;56792;50.644;17.984;2023-04-24T07:02:37;16.49;54.72
69589;SHT31;56792;50.644;17.984;2023-04-24T07:05:06;16.59;54.74
69589;SHT31;56792;50.644;17.984;2023-04-24T07:07:35;16.71;54.63
69589;SHT31;56792;50.644;17.984;2023-04-24T07:10:05;16.80;54.22
69589;SHT31;56792;50.644;17.984;2023-04-24T07:12:35;16.89;53.96
69589;SHT31;56792;50.644;17.984;2023-04-24T07:15:04;16.94;53.59
69589;SHT31;56792;50.644;17.984;2023-04-24T07:17:35;16.98;53.59
69589;SHT31;56792;50.644;17.984;2023-04-24T07:20:05;17.07;53.71
69589;SHT31;56792;50.644;17.984;2023-04-24T07:22:36;17.17;53.71
69589;SHT31;56792;50.644;17.984;2023-04-24T07:25:06;17.24;53.39
69589;SHT31;56792;50.644;17.984;2023-04-24T07:27:35;17.27;52.38
69589;SHT31;56792;50.644;17.984;2023-04-24T07:30:04;17.29;52.36
69589;SHT31;56792;50.644;17.984;2023-04-24T07:32:35;17.33;51.63
69589;SHT31;56792;50.644;17.984;2023-04-24T07:35:03;17.38;51.03
69589;SHT31;56792;50.644;17.984;2023-04-24T07:37:35;17.47;51.11
69589;SHT31;56792;50.644;17.984;2023-04-24T07:40:04;17.64;51.25
69589;SHT31;56792;50.644;17.984;2023-04-24T07:42:34;17.82;50.66
69589;SHT31;56792;50.644;17.984;2023-04-24T07:45:03;18.03;50.50
69589;SHT31;56792;50.644;17.984;2023-04-24T07:47:34;18.32;50.51
69589;SHT31;56792;50.644;17.984;2023-04-24T07:50:03;18.55;49.82
69589;SHT31;56792;50.644;17.984;2023-04-24T07:52:33;18.71;49.54
69589;SHT31;56792;50.644;17.984;2023-04-24T07:55:01;18.91;49.27
69589;SHT31;56792;50.644;17.984;2023-04-24T07:57:30;19.10;48.96
69589;SHT31;56792;50.644;17.984;2023-04-24T07:59:58;19.27;48.90
69589;SHT31;56792;50.644;17.984;2023-04-24T08:02:37;19.44;48.04
69589;SHT31;56792;50.644;17.984;2023-04-24T08:05:06;19.50;47.92
69589;SHT31;56792;50.644;17.984;2023-04-24T08:07:35;19.64;48.29
69589;SHT31;56792;50.644;17.984;2023-04-24T08:10:04;19.74;47.61
69589;SHT31;56792;50.644;17.984;2023-04-24T08:12:36;19.81;47.71
69589;SHT31;56792;50.644;17.984;2023-04-24T08:15:05;19.84;47.52
69589;SHT31;56792;50.644;17.984;2023-04-24T08:17:36;19.89;47.53
69589;SHT31;56792;50.644;17.984;2023-04-24T08:20:05;19.93;47.25
69589;SHT31;56792;50.644;17.984;2023-04-24T08:22:39;20.03;47.35
69589;SHT31;56792;50.644;17.984;2023-04-24T08:25:08;20.14;47.55
69589;SHT31;56792;50.644;17.984;2023-04-24T08:27:37;20.28;47.57
69589;SHT31;56792;50.644;17.984;2023-04-24T08:30:06;20.33;47.06
69589;SHT31;56792;50.644;17.984;2023-04-24T08:32:36;20.34;46.60
69589;SHT31;56792;50.644;17.984;2023-04-24T08:35:05;20.36;46.46
69589;SHT31;56792;50.644;17.984;2023-04-24T08:37:35;20.40;46.24
69589;SHT31;56792;50.644;17.984;2023-04-24T08:40:04;20.44;46.51
69589;SHT31;56792;50.644;17.984;2023-04-24T08:42:39;20.52;46.71
69589;SHT31;56792;50.644;17.984;2023-04-24T08:45:10;20.59;46.70
69589;SHT31;56792;50.644;17.984;2023-04-24T08:47:40;20.65;46.07
69589;SHT31;56792;50.644;17.984;2023-04-24T08:50:10;20.70;46.09
69589;SHT31;56792;50.644;17.984;2023-04-24T08:52:38;20.70;45.49
69589;SHT31;56792;50.644;17.984;2023-04-24T08:55:09;20.71;45.68
69589;SHT31;56792;50.644;17.984;2023-04-24T08:57:37;20.78;45.24
69589;SHT31;56792;50.644;17.984;2023-04-24T09:00:07;20.74;45.23
69589;SHT31;56792;50.644;17.984;2023-04-24T09:02:39;20.72;45.16
69589;SHT31;56792;50.644;17.984;2023-04-24T09:05:09;20.76;44.92
69589;SHT31;56792;50.644;17.984;2023-04-24T09:07:39;20.84;44.91
69589;SHT31;56792;50.644;17.984;2023-04-24T09:10:11;20.97;44.39
69589;SHT31;56792;50.644;17.984;2023-04-24T09:12:40;21.10;44.18
69589;SHT31;56792;50.644;17.984;2023-04-24T09:15:10;21.21;43.66
69589;SHT31;56792;50.644;17.984;2023-04-24T09:17:39;21.31;43.97
69589;SHT31;56792;50.644;17.984;2023-04-24T09:20:08;21.50;44.03
69589;SHT31;56792;50.644;17.984;2023-04-24T09:22:37;21.64;43.65
69589;SHT31;56792;50.644;17.984;2023-04-24T09:25:06;21.68;43.24
69589;SHT31;56792;50.644;17.984;2023-04-24T09:27:41;21.74;43.44
69589;SHT31;56792;50.644;17.984;2023-04-24T09:30:11;21.97;43.90
69589;SHT31;56792;50.644;17.984;2023-04-24T09:32:47;22.25;42.97
69589;SHT31;56792;50.644;17.984;2023-04-24T09:35:15;22.41;42.44
69589;SHT31;56792;50.644;17.984;2023-04-24T09:37:45;22.56;42.64
69589;SHT31;56792;50.644;17.984;2023-04-24T09:40:15;22.69;41.73
69589;SHT31;56792;50.644;17.984;2023-04-24T09:42:51;22.55;40.96
69589;SHT31;56792;50.644;17.984;2023-04-24T09:45:21;22.44;41.59
69589;SHT31;56792;50.644;17.984;2023-04-24T09:47:53;22.49;41.72
69589;SHT31;56792;50.644;17.984;2023-04-24T09:50:23;22.55;41.33
69589;SHT31;56792;50.644;17.984;2023-04-24T09:52:56;22.94;40.89
69589;SHT31;56792;50.644;17.984;2023-04-24T09:55:28;23.63;40.14
69589;SHT31;56792;50.644;17.984;2023-04-24T09:57:57;25.46;37.25
69589;SHT31;56792;50.644;17.984;2023-04-24T10:00:27;26.31;34.92
69589;SHT31;56792;50.644;17.984;2023-04-24T10:02:58;26.21;35.96
69589;SHT31;56792;50.644;17.984;2023-04-24T10:05:28;25.82;35.72
69589;SHT31;56792;50.644;17.984;2023-04-24T10:08:00;25.24;36.10
69589;SHT31;56792;50.644;17.984;2023-04-24T10:10:31;24.82;36.41
69589;SHT31;56792;50.644;17.984;2023-04-24T10:13:04;24.49;36.13
69589;SHT31;56792;50.644;17.984;2023-04-24T10:15:35;24.08;36.81
69589;SHT31;56792;50.644;17.984;2023-04-24T10:18:03;23.48;37.26
69589;SHT31;56792;50.644;17.984;2023-04-24T10:20:33;22.75;37.64
69589;SHT31;56792;50.644;17.984;2023-04-24T10:23:03;22.33;38.74
69589;SHT31;56792;50.644;17.984;2023-04-24T10:25:33;22.13;38.97
69589;SHT31;56792;50.644;17.984;2023-04-24T10:28:03;22.10;39.38
69589;SHT31;56792;50.644;17.984;2023-04-24T10:30:33;21.94;39.70
69589;SHT31;56792;50.644;17.984;2023-04-24T10:33:02;21.57;40.40
69589;SHT31;56792;50.644;17.984;2023-04-24T10:35:34;21.28;41.55
69589;SHT31;56792;50.644;17.984;2023-04-24T10:38:07;20.99;42.86
69589;SHT31;56792;50.644;17.984;2023-04-24T10:40:40;20.81;44.05
69589;SHT31;56792;50.644;17.984;2023-04-24T10:43:09;20.74;44.61
69589;SHT31;56792;50.644;17.984;2023-04-24T10:45:42;20.66;45.16
69589;SHT31;56792;50.644;17.984;2023-04-24T10:48:29;20.43;45.99
69589;SHT31;56792;50.644;17.984;2023-04-24T10:50:58;20.22;46.72
69589;SHT31;56792;50.644;17.984;2023-04-24T10:53:27;20.00;48.11
69589;SHT31;56792;50.644;17.984;2023-04-24T10:56:03;19.72;48.77
69589;SHT31;56792;50.644;17.984;2023-04-24T10:58:39;19.34;49.44
69589;SHT31;56792;50.644;17.984;2023-04-24T11:01:11;18.99;49.74
69589;SHT31;56792;50.644;17.984;2023-04-24T11:03:54;18.94;50.43
69589;SHT31;56792;50.644;17.984;2023-04-24T11:06:30;19.17;50.82
69589;SHT31;56792;50.644;17.984;2023-04-24T11:09:05;19.54;50.48
69589;SHT31;56792;50.644;17.984;2023-04-24T11:11:35;20.18;49.97
69589;SHT31;56792;50.644;17.984;2023-04-24T11:14:10;20.98;48.57
69589;SHT31;56792;50.644;17.984;2023-04-24T11:16:45;21.63;47.76
69589;SHT31;56792;50.644;17.984;2023-04-24T11:19:20;21.73;45.27
69589;SHT31;56792;50.644;17.984;2023-04-24T11:21:55;21.55;45.26
69589;SHT31;56792;50.644;17.984;2023-04-24T11:24:27;21.52;45.36
69589;SHT31;56792;50.644;17.984;2023-04-24T11:27:06;21.42;45.47
69589;SHT31;56792;50.644;17.984;2023-04-24T11:29:42;21.32;45.17
69589;SHT31;56792;50.644;17.984;2023-04-24T11:32:22;21.06;45.62
69589;SHT31;56792;50.644;17.984;2023-04-24T11:34:54;20.70;46.06
69589;SHT31;56792;50.644;17.984;2023-04-24T11:37:26;20.44;46.31
69589;SHT31;56792;50.644;17.984;2023-04-24T11:39:59;20.54;46.45
69589;SHT31;56792;50.644;17.984;2023-04-24T11:42:29;21.95;45.02
69589;SHT31;56792;50.644;17.984;2023-04-24T11:45:06;22.79;43.96
69589;SHT31;56792;50.644;17.984;2023-04-24T11:47:37;22.54;44.04
69589;SHT31;56792;50.644;17.984;2023-04-24T11:50:07;22.24;44.08
69589;SHT31;56792;50.644;17.984;2023-04-24T11:52:40;22.56;43.99
69589;SHT31;56792;50.644;17.984;2023-04-24T11:55:12;22.87;42.80
69589;SHT31;56792;50.644;17.984;2023-04-24T11:57:53;23.21;42.33
69589;SHT31;56792;50.644;17.984;2023-04-24T12:00:23;23.33;42.04
69589;SHT31;56792;50.644;17.984;2023-04-24T12:03:04;23.43;42.33
69589;SHT31;56792;50.644;17.984;2023-04-24T12:05:35;23.06;42.73
69589;SHT31;56792;50.644;17.984;2023-04-24T12:08:05;22.95;42.76
69589;SHT31;56792;50.644;17.984;2023-04-24T12:10:33;23.30;42.52
69589;SHT31;56792;50.644;17.984;2023-04-24T12:13:02;23.82;42.07
69589;SHT31;56792;50.644;17.984;2023-04-24T12:15:31;24.01;42.00
69589;SHT31;56792;50.644;17.984;2023-04-24T12:17:59;24.09;41.67
69589;SHT31;56792;50.644;17.984;2023-04-24T12:20:28;24.33;41.22
69589;SHT31;56792;50.644;17.984;2023-04-24T12:22:58;24.18;40.48
69589;SHT31;56792;50.644;17.984;2023-04-24T12:25:28;23.81;40.62
69589;SHT31;56792;50.644;17.984;2023-04-24T12:28:09;23.91;40.62
69589;SHT31;56792;50.644;17.984;2023-04-24T12:30:40;23.67;40.70
69589;SHT31;56792;50.644;17.984;2023-04-24T12:33:10;23.32;40.92
69589;SHT31;56792;50.644;17.984;2023-04-24T12:35:39;22.82;41.03
69589;SHT31;56792;50.644;17.984;2023-04-24T12:38:08;22.32;41.49
69589;SHT31;56792;50.644;17.984;2023-04-24T12:40:39;21.93;41.93
69589;SHT31;56792;50.644;17.984;2023-04-24T12:43:13;21.50;42.70
69589;SHT31;56792;50.644;17.984;2023-04-24T12:45:43;21.10;44.00
69589;SHT31;56792;50.644;17.984;2023-04-24T12:48:11;20.79;44.28
69589;SHT31;56792;50.644;17.984;2023-04-24T12:50:40;20.52;44.77
69589;SHT31;56792;50.644;17.984;2023-04-24T12:53:09;20.25;44.81
69589;SHT31;56792;50.644;17.984;2023-04-24T12:55:37;20.00;45.06
69589;SHT31;56792;50.644;17.984;2023-04-24T12:58:05;19.75;45.63
69589;SHT31;56792;50.644;17.984;2023-04-24T13:00:34;19.50;46.14
69589;SHT31;56792;50.644;17.984;2023-04-24T13:03:02;19.27;46.44
69589;SHT31;56792;50.644;17.984;2023-04-24T13:05:31;19.09;46.91
69589;SHT31;56792;50.644;17.984;2023-04-24T13:07:59;18.90;47.14
69589;SHT31;56792;50.644;17.984;2023-04-24T13:10:28;18.72;48.35
69589;SHT31;56792;50.644;17.984;2023-04-24T13:12:56;18.55;48.82
69589;SHT31;56792;50.644;17.984;2023-04-24T13:15:24;18.42;49.08
69589;SHT31;56792;50.644;17.984;2023-04-24T13:17:52;18.24;48.93
69589;SHT31;56792;50.644;17.984;2023-04-24T13:20:21;18.01;49.26
69589;SHT31;56792;50.644;17.984;2023-04-24T13:22:49;17.84;49.93
69589;SHT31;56792;50.644;17.984;2023-04-24T13:25:17;17.77;50.53
69589;SHT31;56792;50.644;17.984;2023-04-24T13:27:48;17.73;51.10
69589;SHT31;56792;50.644;17.984;2023-04-24T13:30:16;17.63;51.58
69589;SHT31;56792;50.644;17.984;2023-04-24T13:32:45;17.43;51.85
69589;SHT31;56792;50.644;17.984;2023-04-24T13:35:13;17.28;52.43
69589;SHT31;56792;50.644;17.984;2023-04-24T13:37:41;17.23;53.04
69589;SHT31;56792;50.644;17.984;2023-04-24T13:40:10;17.06;53.62
69589;SHT31;56792;50.644;17.984;2023-04-24T13:42:39;16.93;53.87
69589;SHT31;56792;50.644;17.984;2023-04-24T13:45:09;16.87;54.14
69589;SHT31;56792;50.644;17.984;2023-04-24T13:47:38;16.77;54.53
69589;SHT31;56792;50.644;17.984;2023-04-24T13:50:07;16.67;54.91
69589;SHT31;56792;50.644;17.984;2023-04-24T13:52:37;16.62;55.29
69589;SHT31;56792;50.644;17.984;2023-04-24T13:55:06;16.59;55.48
69589;SHT31;56792;50.644;17.984;2023-04-24T13:57:35;16.55;55.90
69589;SHT31;56792;50.644;17.984;2023-04-24T14:00:04;16.44;56.48
69589;SHT31;56792;50.644;17.984;2023-04-24T14:02:36;16.31;56.79
69589;SHT31;56792;50.644;17.984;2023-04-24T14:05:05;16.24;57.24
69589;SHT31;56792;50.644;17.984;2023-04-24T14:07:35;16.17;57.70
69589;SHT31;56792;50.644;17.984;2023-04-24T14:10:04;16.08;58.05
69589;SHT31;56792;50.644;17.984;2023-04-24T14:12:33;16.03;58.56
69589;SHT31;56792;50.644;17.984;2023-04-24T14:15:03;15.94;58.95
69589;SHT31;56792;50.644;17.984;2023-04-24T14:17:34;15.90;59.62
69589;SHT31;56792;50.644;17.984;2023-04-24T14:20:02;15.84;60.28
69589;SHT31;56792;50.644;17.984;2023-04-24T14:22:34;15.82;60.69
69589;SHT31;56792;50.644;17.984;2023-04-24T14:25:03;15.75;60.91
69589;SHT31;56792;50.644;17.984;2023-04-24T14:27:34;15.67;61.36
69589;SHT31;56792;50.644;17.984;2023-04-24T14:30:02;15.59;62.23
69589;SHT31;56792;50.644;17.984;2023-04-24T14:32:33;15.50;62.89
69589;SHT31;56792;50.644;17.984;2023-04-24T14:35:01;15.39;63.90
69589;SHT31;56792;50.644;17.984;2023-04-24T14:37:31;15.23;64.96
69589;SHT31;56792;50.644;17.984;2023-04-24T14:39:59;15.05;65.48
69589;SHT31;56792;50.644;17.984;2023-04-24T14:42:28;14.92;66.00
69589;SHT31;56792;50.644;17.984;2023-04-24T14:44:56;14.82;66.27
69589;SHT31;56792;50.644;17.984;2023-04-24T14:47:25;14.72;67.11
69589;SHT31;56792;50.644;17.984;2023-04-24T14:49:53;14.62;67.24
69589;SHT31;56792;50.644;17.984;2023-04-24T14:52:21;14.55;67.72
69589;SHT31;56792;50.644;17.984;2023-04-24T14:54:50;14.47;67.70
69589;SHT31;56792;50.644;17.984;2023-04-24T14:57:18;14.45;68.03
69589;SHT31;56792;50.644;17.984;2023-04-24T14:59:46;14.43;68.29
69589;SHT31;56792;50.644;17.984;2023-04-24T15:02:14;14.40;68.92
69589;SHT31;56792;50.644;17.984;2023-04-24T15:04:42;14.31;69.22
69589;SHT31;56792;50.644;17.984;2023-04-24T15:07:11;14.25;69.63
69589;SHT31;56792;50.644;17.984;2023-04-24T15:09:39;14.20;69.98
69589;SHT31;56792;50.644;17.984;2023-04-24T15:12:08;14.17;70.40
69589;SHT31;56792;50.644;17.984;2023-04-24T15:14:38;14.08;70.93
69589;SHT31;56792;50.644;17.984;2023-04-24T15:17:06;14.03;71.01
69589;SHT31;56792;50.644;17.984;2023-04-24T15:19:34;14.01;71.21
69589;SHT31;56792;50.644;17.984;2023-04-24T15:22:02;14.00;71.31
69589;SHT31;56792;50.644;17.984;2023-04-24T15:24:31;14.01;71.36
69589;SHT31;56792;50.644;17.984;2023-04-24T15:26:59;14.02;71.19
69589;SHT31;56792;50.644;17.984;2023-04-24T15:29:27;14.05;71.47
69589;SHT31;56792;50.644;17.984;2023-04-24T15:31:56;14.08;71.40